createdAt,value
2022-12-15T00:01:13.570Z,15.50
2022-12-15T00:06:33.768Z,15.50
2022-12-15T00:11:53.912Z,15.60
2022-12-15T00:17:14.290Z,15.70
2022-12-15T00:22:34.601Z,15.80
2022-12-15T00:27:55.116Z,15.80
2022-12-15T00:33:15.223Z,15.70
2022-12-15T00:38:35.672Z,15.60
2022-12-15T00:43:37.414Z,15.60
2022-12-15T00:48:39.574Z,15.50
2022-12-15T00:53:59.867Z,15.50
2022-12-15T00:59:20.528Z,15.40
2022-12-15T01:04:40.802Z,15.30
2022-12-15T01:10:00.925Z,15.30
2022-12-15T01:15:21.238Z,15.30
2022-12-15T01:20:22.963Z,15.30
2022-12-15T01:25:25.460Z,15.40
2022-12-15T01:30:27.674Z,15.50
2022-12-15T01:35:29.527Z,15.60
2022-12-15T01:40:46.601Z,15.60
2022-12-15T01:45:50.077Z,15.60
2022-12-15T01:50:58.667Z,15.50
2022-12-15T01:56:00.516Z,15.50
2022-12-15T02:06:24.482Z,15.40
2022-12-15T02:11:38.489Z,15.50
2022-12-15T02:16:54.296Z,15.50
2022-12-15T02:22:06.825Z,15.40
2022-12-15T02:27:11.184Z,15.40
2022-12-15T02:32:14.245Z,15.30
2022-12-15T02:37:18.192Z,15.30
2022-12-15T02:42:20.008Z,15.40
2022-12-15T02:47:40.476Z,15.40
2022-12-15T02:52:54.166Z,15.30
2022-12-15T02:58:08.554Z,15.30
2022-12-15T03:03:10.937Z,15.30
2022-12-15T03:08:12.730Z,15.30
2022-12-15T03:13:14.369Z,15.30
2022-12-15T03:18:16.323Z,15.30
2022-12-15T03:23:18.224Z,15.30
2022-12-15T03:28:19.848Z,15.20
2022-12-15T03:33:21.594Z,15.20
2022-12-15T03:38:23.515Z,15.30
2022-12-15T03:43:25.259Z,15.20
2022-12-15T03:48:27.334Z,15.20
2022-12-15T03:53:29.389Z,15.20
2022-12-15T03:58:31.504Z,15.30
2022-12-15T04:03:33.827Z,15.40
2022-12-15T04:08:35.946Z,15.40
2022-12-15T04:13:37.808Z,15.50
2022-12-15T04:18:39.502Z,15.50
2022-12-15T04:23:59.951Z,15.40
2022-12-15T04:29:20.138Z,15.40
2022-12-15T04:34:42.264Z,15.40
2022-12-15T04:40:04.222Z,15.50
2022-12-15T06:02:20.616Z,16.00
2022-12-15T06:07:22.625Z,16.30
2022-12-15T06:12:24.709Z,16.50
2022-12-15T06:17:26.487Z,16.60
2022-12-15T06:22:29.637Z,16.60
2022-12-15T06:27:31.751Z,16.50
2022-12-15T06:32:35.158Z,16.40
2022-12-15T06:37:36.795Z,16.40
2022-12-15T06:42:40.981Z,16.40
2022-12-15T06:47:42.831Z,16.60
2022-12-15T06:52:44.431Z,16.70
2022-12-15T06:57:49.091Z,16.60
2022-12-15T07:02:51.038Z,16.50
2022-12-15T07:07:53.049Z,16.50
2022-12-15T07:12:56.427Z,16.50
2022-12-15T07:17:58.136Z,16.50
2022-12-15T07:23:00.824Z,16.40
2022-12-15T07:28:02.945Z,16.30
2022-12-15T07:33:04.851Z,16.20
2022-12-15T07:38:07.393Z,16.10
2022-12-15T07:43:09.113Z,16.00
2022-12-15T07:48:11.041Z,15.90
2022-12-15T07:53:12.904Z,15.80
2022-12-15T07:58:14.715Z,15.70
2022-12-15T08:03:16.845Z,15.60
2022-12-15T08:08:19.065Z,15.50
2022-12-15T08:13:52.522Z,15.40
2022-12-15T08:18:43.013Z,15.40
2022-12-15T08:23:45.048Z,15.20
2022-12-15T08:28:46.868Z,15.20
2022-12-15T08:33:48.980Z,15.10
2022-12-15T08:38:51.091Z,15.10
2022-12-15T08:43:52.992Z,15.00
2022-12-15T08:48:54.658Z,14.90
2022-12-15T08:53:57.019Z,14.90
2022-12-15T08:58:59.869Z,14.80
2022-12-15T09:04:04.112Z,14.70
2022-12-15T09:09:07.557Z,14.70
2022-12-15T09:14:09.301Z,14.60
2022-12-15T09:19:11.142Z,14.60
2022-12-15T09:24:18.344Z,14.60
2022-12-15T09:29:26.552Z,14.50
2022-12-15T09:34:28.429Z,14.50
2022-12-15T09:39:30.195Z,14.40
2022-12-15T09:44:32.672Z,14.40
2022-12-15T09:49:46.609Z,14.40
2022-12-15T09:54:48.488Z,14.30
2022-12-15T10:00:06.321Z,14.30
2022-12-15T10:05:08.647Z,14.40
2022-12-15T10:10:17.776Z,14.30
2022-12-15T10:15:22.586Z,14.30
2022-12-15T10:20:28.628Z,14.30
2022-12-15T10:25:31.291Z,14.30
2022-12-15T10:30:33.531Z,14.30
2022-12-15T10:35:36.689Z,14.30
2022-12-15T10:40:43.920Z,14.20
2022-12-15T10:45:46.087Z,14.20
2022-12-15T10:50:50.229Z,14.20
2022-12-15T10:55:59.315Z,14.20
2022-12-15T11:01:15.857Z,14.20
2022-12-15T11:06:19.995Z,14.10
2022-12-15T11:11:45.104Z,14.10
2022-12-15T11:16:49.196Z,14.10
2022-12-15T11:21:56.397Z,14.10
2022-12-15T11:27:15.554Z,14.10
2022-12-15T11:32:20.394Z,14.10
2022-12-15T11:37:36.468Z,14.10
2022-12-15T11:42:38.660Z,14.10
2022-12-15T11:47:44.897Z,14.10
2022-12-15T11:52:49.355Z,14.10
2022-12-15T11:58:06.416Z,14.10
2022-12-15T12:03:19.592Z,14.10
2022-12-15T12:08:36.246Z,14.10
2022-12-15T12:13:44.184Z,14.10
2022-12-15T12:18:50.495Z,14.10
2022-12-15T12:24:03.880Z,14.10
2022-12-15T12:29:14.401Z,14.10
2022-12-15T12:34:19.871Z,14.10
2022-12-15T12:39:23.728Z,14.10
2022-12-15T12:44:31.055Z,14.10
2022-12-15T12:49:32.705Z,14.10
2022-12-15T12:54:34.408Z,14.00
2022-12-15T12:59:37.544Z,14.00
2022-12-15T13:04:40.236Z,14.00
2022-12-15T13:09:42.841Z,14.00
2022-12-15T13:14:48.246Z,14.00
2022-12-15T13:19:59.314Z,14.00
2022-12-15T13:25:01.847Z,13.90
2022-12-15T13:30:09.411Z,13.90
2022-12-15T13:35:13.715Z,13.90
2022-12-15T13:40:35.108Z,13.90
2022-12-15T13:45:56.295Z,13.90
2022-12-15T13:51:16.805Z,13.90
2022-12-15T13:56:25.498Z,13.80
2022-12-15T14:01:32.582Z,13.80
2022-12-15T14:06:36.114Z,13.80
2022-12-15T14:11:52.374Z,13.80
2022-12-15T14:16:57.685Z,13.80
2022-12-15T14:22:00.098Z,13.80
2022-12-15T14:27:01.818Z,13.80
2022-12-15T14:32:03.868Z,13.80
2022-12-15T14:37:11.071Z,13.70
2022-12-15T14:42:21.858Z,13.70
2022-12-15T14:47:26.879Z,13.70
2022-12-15T14:52:30.728Z,13.70
2022-12-15T14:57:41.225Z,13.70
2022-12-15T15:02:43.140Z,13.70
2022-12-15T15:07:45.547Z,13.70
2022-12-15T15:12:48.281Z,13.60
2022-12-15T15:17:55.015Z,13.60
2022-12-15T15:23:10.670Z,13.60
2022-12-15T15:28:20.616Z,13.60
2022-12-15T15:33:22.498Z,13.60
2022-12-15T15:38:27.102Z,13.60
2022-12-15T15:43:28.886Z,13.50
2022-12-15T15:48:32.405Z,13.50
2022-12-15T15:53:34.774Z,13.50
2022-12-15T15:58:36.727Z,13.50
2022-12-15T16:03:38.651Z,13.50
2022-12-15T16:08:40.721Z,13.50
2022-12-15T16:13:42.425Z,13.50
2022-12-15T16:18:44.047Z,13.50
2022-12-15T16:23:46.961Z,13.50
2022-12-15T16:28:48.560Z,13.50
2022-12-15T16:33:50.328Z,13.50
2022-12-15T16:38:52.044Z,13.50
2022-12-15T16:43:54.107Z,13.50
2022-12-15T16:48:55.848Z,13.60
2022-12-15T16:53:58.255Z,13.80
2022-12-15T16:59:30.809Z,14.10
2022-12-15T17:04:21.857Z,14.60
2022-12-15T17:09:24.497Z,14.90
2022-12-15T17:14:26.260Z,15.20
2022-12-15T17:19:27.936Z,15.50
2022-12-15T17:24:29.711Z,15.70
2022-12-15T17:29:32.025Z,15.90
2022-12-15T17:34:34.638Z,16.00
2022-12-15T17:39:36.311Z,16.00
2022-12-15T17:44:39.920Z,16.20
2022-12-15T17:49:41.747Z,16.30
2022-12-15T17:54:43.448Z,16.40
2022-12-15T17:59:45.301Z,16.40
2022-12-15T18:04:46.854Z,16.50
2022-12-15T18:09:48.883Z,16.70
2022-12-15T18:14:50.554Z,16.70
2022-12-15T18:19:52.570Z,16.80
2022-12-15T18:24:54.415Z,17.00
2022-12-15T18:29:56.642Z,17.10
2022-12-15T18:34:58.433Z,17.00
2022-12-15T18:40:04.584Z,16.90
2022-12-15T18:45:15.056Z,16.80
2022-12-15T18:50:19.513Z,16.80
2022-12-15T18:55:22.571Z,16.80
2022-12-15T19:00:28.873Z,16.80
2022-12-15T19:05:33.853Z,16.70
2022-12-15T19:10:36.698Z,16.70
2022-12-15T19:15:38.406Z,16.70
2022-12-15T19:20:58.539Z,16.70
2022-12-15T19:26:00.231Z,16.70
2022-12-15T19:31:02.068Z,16.60
2022-12-15T19:36:03.995Z,16.60
2022-12-15T19:41:05.726Z,16.50
2022-12-15T19:46:17.971Z,16.60
2022-12-15T19:51:21.150Z,16.60
2022-12-15T19:56:23.947Z,16.60
2022-12-15T20:01:26.202Z,16.70
2022-12-15T20:06:28.118Z,16.70
2022-12-15T20:11:31.163Z,16.70
2022-12-15T20:16:33.698Z,16.70
2022-12-15T20:21:37.285Z,16.60
2022-12-15T20:26:39.352Z,16.60
2022-12-15T20:31:41.104Z,16.60
2022-12-15T20:36:42.793Z,16.60
2022-12-15T20:41:44.501Z,16.70
2022-12-15T20:46:46.905Z,16.70
2022-12-15T20:51:49.253Z,16.70
2022-12-15T20:56:51.083Z,16.50
2022-12-15T21:01:52.991Z,16.50
2022-12-15T21:06:56.936Z,16.30
2022-12-15T21:11:58.636Z,16.20
2022-12-15T21:17:00.377Z,16.10
2022-12-15T21:22:02.296Z,16.00
2022-12-15T21:27:04.404Z,15.90
2022-12-15T21:32:06.097Z,15.80
2022-12-15T21:37:34.066Z,15.60
2022-12-15T21:42:36.173Z,15.50
2022-12-15T21:47:56.307Z,15.40
2022-12-15T21:53:00.423Z,15.40
2022-12-15T21:58:02.279Z,15.30
2022-12-15T22:03:04.099Z,15.20
2022-12-15T22:08:14.200Z,15.20
2022-12-15T22:13:20.807Z,15.10
2022-12-15T22:18:23.734Z,15.10
2022-12-15T22:23:25.441Z,15.00
2022-12-15T22:28:28.105Z,14.90
2022-12-15T22:33:31.734Z,14.90
2022-12-15T22:38:34.118Z,14.80
2022-12-15T22:43:43.258Z,14.70
2022-12-15T22:48:47.693Z,14.70
2022-12-15T22:53:49.503Z,14.70
2022-12-15T22:58:59.544Z,14.70
2022-12-15T23:04:01.480Z,14.70
2022-12-15T23:09:04.314Z,14.70
2022-12-15T23:14:06.818Z,14.70
2022-12-15T23:19:09.461Z,14.70
2022-12-15T23:24:11.475Z,14.70
2022-12-15T23:29:13.157Z,14.60
2022-12-15T23:34:15.411Z,14.60
2022-12-15T23:39:17.261Z,14.60
2022-12-15T23:44:18.997Z,14.60
2022-12-15T23:49:20.827Z,14.60
2022-12-15T23:54:22.704Z,14.50
2022-12-15T23:59:24.476Z,14.50
